Terminal Aerodrome Forecast
Issued by NWS Knoxville/Tri Cities, TN

Home | Current Version | Previous Version | Text Only | Print | Product List | Glossary On
Versions: 1 2 3 4 5 6 7 8 9 10 11 12 13 14 15 16 17 18 19 20 21 22 23
379
FTUS44 KMRX 072342
TAFTRI
TAF
KTRI 072342Z 0800/0824 24005KT P6SM SCT250
     FM080900 22003KT P6SM OVC100
     FM081200 00000KT P6SM -SN OVC050
     FM081500 21003KT 2SM -RA BR OVC010
     FM081800 26008KT P6SM -SHRA OVC025
     FM082100 23008KT P6SM -SHRA OVC050=

USA.gov is the U.S. government's official web portal to all federal, state and local government web resources and services.